Terminal Aerodrome Forecast
Issued by NWS

Home | Current Version | Previous Version | Text Only | Print | Product List | Glossary On
Versions: 1 2 3 4 5 6 7 8 9 10 11 12 13 14
000
FTUS43 KEAX 131720
TAFMKC
TAF
KMKC 131720Z 1318/1418 31018G28KT P6SM SCT040
     FM132300 33012KT P6SM SKC
     FM140300 35010KT P6SM SCT035
     FM140600 35008KT P6SM BKN020=

USA.gov is the U.S. government's official web portal to all federal, state and local government web resources and services.